Time,TemperatureF,DewpointF,PressureIn,WindDirection,WindDirectionDegrees,WindSpeedMPH,WindSpeedGustMPH,Humidity,HourlyPrecipIn,Conditions,Clouds,dailyrainin,SoftwareType,DateUTC
2013-05-15 00:05:00,73.2,68.4,30.07,ENE,74,6.0,6.0,85,0.00,,,0.00,Wunderground v.1.15,2013-05-15 10:05:00,
2013-05-15 00:15:00,73.3,68.9,30.07,ENE,71,5.0,5.0,86,0.00,,,0.00,Wunderground v.1.15,2013-05-15 10:15:00,
2013-05-15 00:25:00,73.4,69.0,30.07,East,80,6.0,6.0,86,0.00,,,0.00,Wunderground v.1.15,2013-05-15 10:25:00,
2013-05-15 00:35:00,73.6,68.8,30.07,East,98,6.0,7.0,85,0.00,,,0.00,Wunderground v.1.15,2013-05-15 10:35:00,
2013-05-15 00:40:00,73.6,68.8,30.07,NE,35,6.0,8.0,85,0.00,,,0.00,Wunderground v.1.15,2013-05-15 10:40:00,
2013-05-15 00:50:00,73.5,68.7,30.07,East,91,4.0,4.0,85,0.00,,,0.00,Wunderground v.1.15,2013-05-15 10:50:00,
2013-05-15 01:05:00,73.5,68.7,30.07,ENE,59,4.0,9.0,85,0.00,,,0.00,Wunderground v.1.15,2013-05-15 11:05:00,
2013-05-15 01:15:00,73.7,68.6,30.07,NE,50,4.0,6.0,84,0.00,,,0.00,Wunderground v.1.15,2013-05-15 11:15:00,
2013-05-15 01:25:00,73.8,68.7,30.06,NNE,25,5.0,6.0,84,0.00,,,0.00,Wunderground v.1.15,2013-05-15 11:25:00,
2013-05-15 01:35:00,73.7,68.6,30.06,East,86,5.0,5.0,84,0.00,,,0.00,Wunderground v.1.15,2013-05-15 11:35:00,
2013-05-15 01:45:00,73.5,68.4,30.06,ENE,69,4.0,4.0,84,0.00,,,0.00,Wunderground v.1.15,2013-05-15 11:45:00,
2013-05-15 01:55:00,73.6,68.8,30.05,East,82,5.0,5.0,85,0.00,,,0.00,Wunderground v.1.15,2013-05-15 11:55:00,
2013-05-15 02:05:00,73.3,68.9,30.05,ENE,65,4.0,5.0,86,0.00,,,0.00,Wunderground v.1.15,2013-05-15 12:05:00,
2013-05-15 02:15:00,73.3,68.9,30.05,NE,37,5.0,10.0,86,0.00,,,0.00,Wunderground v.1.15,2013-05-15 12:15:00,
2013-05-15 02:25:00,73.3,69.2,30.05,ENE,62,4.0,4.0,87,0.00,,,0.00,Wunderground v.1.15,2013-05-15 12:25:00,
2013-05-15 02:35:00,73.2,68.4,30.05,NE,55,4.0,4.0,85,0.00,,,0.00,Wunderground v.1.15,2013-05-15 12:35:00,
2013-05-15 02:40:00,73.2,68.1,30.05,ENE,57,4.0,4.0,84,0.00,,,0.00,Wunderground v.1.15,2013-05-15 12:40:00,
2013-05-15 02:50:00,73.2,68.1,30.05,NE,45,3.0,3.0,84,0.00,,,0.00,Wunderground v.1.15,2013-05-15 12:50:00,
2013-05-15 03:00:00,73.3,68.2,30.04,East,82,4.0,4.0,84,0.00,,,0.00,Wunderground v.1.15,2013-05-15 13:00:00,
2013-05-15 03:05:00,73.3,68.2,30.04,NE,51,4.0,4.0,84,0.00,,,0.00,Wunderground v.1.15,2013-05-15 13:05:00,
2013-05-15 03:15:00,73.3,68.2,30.04,East,94,5.0,5.0,84,0.00,,,0.00,Wunderground v.1.15,2013-05-15 13:15:00,
2013-05-15 03:30:00,73.6,68.8,30.04,ENE,67,5.0,5.0,85,0.00,,,0.00,Wunderground v.1.15,2013-05-15 13:30:00,
2013-05-15 03:35:00,73.5,68.7,30.04,East,99,4.0,5.0,85,0.00,,,0.00,Wunderground v.1.15,2013-05-15 13:35:00,
2013-05-15 03:45:00,73.3,68.9,30.04,East,98,5.0,5.0,86,0.00,,,0.00,Wunderground v.1.15,2013-05-15 13:45:00,
2013-05-15 03:55:00,73.2,68.8,30.04,ENE,72,4.0,4.0,86,0.00,,,0.00,Wunderground v.1.15,2013-05-15 13:55:00,
2013-05-15 04:00:00,73.2,68.8,30.04,ENE,71,4.0,4.0,86,0.00,,,0.00,Wunderground v.1.15,2013-05-15 14:00:00,
2013-05-15 04:05:00,73.2,68.4,30.04,East,87,5.0,5.0,85,0.00,,,0.00,Wunderground v.1.15,2013-05-15 14:05:00,
2013-05-15 04:15:00,73.2,68.4,30.04,East,101,4.0,4.0,85,0.00,,,0.00,Wunderground v.1.15,2013-05-15 14:15:00,
2013-05-15 04:25:00,73.2,68.4,30.04,NE,50,4.0,4.0,85,0.00,,,0.00,Wunderground v.1.15,2013-05-15 14:25:00,
2013-05-15 04:35:00,73.3,68.5,30.04,NE,53,4.0,4.0,85,0.00,,,0.00,Wunderground v.1.15,2013-05-15 14:35:00,
2013-05-15 04:40:00,73.4,68.6,30.04,East,83,4.0,7.0,85,0.00,,,0.00,Wunderground v.1.15,2013-05-15 14:40:00,
2013-05-15 04:50:00,73.6,68.5,30.04,East,80,5.0,5.0,84,0.00,,,0.00,Wunderground v.1.15,2013-05-15 14:50:00,
2013-05-15 05:00:00,73.5,68.4,30.04,East,80,3.0,3.0,84,0.00,,,0.00,Wunderground v.1.15,2013-05-15 15:00:00,
2013-05-15 05:05:00,73.4,68.3,30.04,NE,49,3.0,4.0,84,0.00,,,0.00,Wunderground v.1.15,2013-05-15 15:05:00,
2013-05-15 05:15:00,73.3,69.2,30.04,SE,129,4.0,4.0,87,0.00,,,0.00,Wunderground v.1.15,2013-05-15 15:15:00,
2013-05-15 05:25:00,73.0,68.9,30.04,ESE,109,5.0,11.0,87,0.00,,,0.00,Wunderground v.1.15,2013-05-15 15:25:00,
2013-05-15 05:35:00,73.0,68.2,30.04,ENE,57,5.0,6.0,85,0.00,,,0.00,Wunderground v.1.15,2013-05-15 15:35:00,
2013-05-15 05:45:00,73.0,67.9,30.04,East,80,4.0,4.0,84,0.00,,,0.00,Wunderground v.1.15,2013-05-15 15:45:00,
2013-05-15 06:05:00,73.1,68.0,30.05,ENE,67,3.0,3.0,84,0.00,,,0.00,Wunderground v.1.15,2013-05-15 16:05:00,
2013-05-15 06:15:00,73.5,68.0,30.05,ENE,78,3.0,7.0,83,0.00,,,0.00,Wunderground v.1.15,2013-05-15 16:15:00,
2013-05-15 06:30:00,73.7,67.9,30.05,East,82,5.0,5.0,82,0.00,,,0.00,Wunderground v.1.15,2013-05-15 16:30:00,
2013-05-15 06:40:00,73.8,68.3,30.06,East,94,4.0,4.0,83,0.00,,,0.00,Wunderground v.1.15,2013-05-15 16:40:00,
2013-05-15 06:50:00,74.1,68.3,30.06,East,86,3.0,3.0,82,0.00,,,0.00,Wunderground v.1.15,2013-05-15 16:50:00,
2013-05-15 07:00:00,74.3,68.4,30.06,ENE,69,5.0,6.0,82,0.00,,,0.00,Wunderground v.1.15,2013-05-15 17:00:00,
2013-05-15 07:10:00,74.4,68.5,30.07,ENE,65,5.0,5.0,82,0.00,,,0.00,Wunderground v.1.15,2013-05-15 17:10:00,
2013-05-15 07:20:00,74.6,68.7,30.07,ENE,65,6.0,7.0,82,0.00,,,0.00,Wunderground v.1.15,2013-05-15 17:20:00,
2013-05-15 07:30:00,74.6,69.1,30.08,ENE,61,7.0,7.0,83,0.00,,,0.00,Wunderground v.1.15,2013-05-15 17:30:00,
2013-05-15 07:35:00,74.6,69.1,30.07,NE,38,7.0,10.0,83,0.00,,,0.00,Wunderground v.1.15,2013-05-15 17:35:00,
2013-05-15 07:45:00,74.6,69.1,30.08,East,82,7.0,12.0,83,0.00,,,0.00,Wunderground v.1.15,2013-05-15 17:45:00,
2013-05-15 07:55:00,74.9,69.4,30.08,East,88,6.0,7.0,83,0.00,,,0.00,Wunderground v.1.15,2013-05-15 17:55:00,
2013-05-15 08:05:00,76.0,69.7,30.09,ENE,65,6.0,6.0,81,0.00,,,0.00,Wunderground v.1.15,2013-05-15 18:05:00,
2013-05-15 08:15:00,76.5,70.6,30.09,East,80,6.0,7.0,82,0.00,,,0.00,Wunderground v.1.15,2013-05-15 18:15:00,
2013-05-15 08:20:00,76.2,69.9,30.09,ENE,60,6.0,6.0,81,0.00,,,0.00,Wunderground v.1.15,2013-05-15 18:20:00,
2013-05-15 08:30:00,76.4,70.1,30.09,NE,49,7.0,10.0,81,0.00,,,0.00,Wunderground v.1.15,2013-05-15 18:30:00,
2013-05-15 08:35:00,76.5,70.2,30.09,ENE,72,7.0,10.0,81,0.00,,,0.00,Wunderground v.1.15,2013-05-15 18:35:00,
2013-05-15 08:50:00,77.0,69.6,30.09,ESE,103,8.0,8.0,78,0.00,,,0.00,Wunderground v.1.15,2013-05-15 18:50:00,
2013-05-15 09:05:00,78.0,69.4,30.09,ESE,107,6.0,19.0,75,0.00,,,0.00,Wunderground v.1.15,2013-05-15 19:05:00,
2013-05-15 09:15:00,78.8,69.4,30.10,East,89,6.0,6.0,73,0.00,,,0.00,Wunderground v.1.15,2013-05-15 19:15:00,
2013-05-15 09:25:00,78.3,68.9,30.10,ENE,77,7.0,7.0,73,0.00,,,0.00,Wunderground v.1.15,2013-05-15 19:25:00,
2013-05-15 09:35:00,78.2,68.4,30.10,ESE,102,6.0,12.0,72,0.00,,,0.00,Wunderground v.1.15,2013-05-15 19:35:00,
2013-05-15 09:45:00,78.9,68.7,30.10,ESE,107,6.0,10.0,71,0.00,,,0.00,Wunderground v.1.15,2013-05-15 19:45:00,
2013-05-15 09:50:00,78.4,68.6,30.10,East,94,6.0,9.0,72,0.00,,,0.00,Wunderground v.1.15,2013-05-15 19:50:00,
2013-05-15 10:00:00,79.1,68.9,30.10,NE,52,6.0,6.0,71,0.00,,,0.00,Wunderground v.1.15,2013-05-15 20:00:00,
2013-05-15 10:05:00,79.1,68.9,30.10,ENE,58,6.0,6.0,71,0.00,,,0.00,Wunderground v.1.15,2013-05-15 20:05:00,
2013-05-15 10:15:00,79.1,70.1,30.10,East,91,6.0,7.0,74,0.00,,,0.00,Wunderground v.1.15,2013-05-15 20:15:00,
2013-05-15 10:25:00,79.3,69.9,30.10,NNE,32,6.0,13.0,73,0.00,,,0.00,Wunderground v.1.15,2013-05-15 20:25:00,
2013-05-15 10:35:00,78.5,69.9,30.10,ENE,71,6.0,8.0,75,0.00,,,0.00,Wunderground v.1.15,2013-05-15 20:35:00,
2013-05-15 10:40:00,78.6,70.0,30.09,ENE,78,7.0,7.0,75,0.00,,,0.00,Wunderground v.1.15,2013-05-15 20:40:00,
2013-05-15 10:55:00,79.7,70.3,30.09,NE,54,6.0,7.0,73,0.00,,,0.00,Wunderground v.1.15,2013-05-15 20:55:00,
2013-05-15 11:15:00,79.2,70.2,30.08,ENE,67,9.0,11.0,74,0.00,,,0.00,Wunderground v.1.15,2013-05-15 21:15:00,
2013-05-15 11:25:00,79.1,70.5,30.09,East,90,8.0,9.0,75,0.00,,,0.00,Wunderground v.1.15,2013-05-15 21:25:00,
2013-05-15 11:30:00,79.2,70.2,30.08,East,94,8.0,8.0,74,0.00,,,0.00,Wunderground v.1.15,2013-05-15 21:30:00,
2013-05-15 11:45:00,79.0,70.0,30.08,NE,55,7.0,11.0,74,0.00,,,0.00,Wunderground v.1.15,2013-05-15 21:45:00,
2013-05-15 11:55:00,78.3,69.7,30.08,ESE,111,9.0,11.0,75,0.00,,,0.00,Wunderground v.1.15,2013-05-15 21:55:00,
2013-05-15 12:00:00,78.5,69.5,30.08,East,90,9.0,9.0,74,0.00,,,0.00,Wunderground v.1.15,2013-05-15 22:00:00,
2013-05-15 12:10:00,80.0,69.7,30.07,ESE,112,6.0,6.0,71,0.00,,,0.00,Wunderground v.1.15,2013-05-15 22:10:00,
2013-05-15 12:20:00,80.8,70.1,30.07,East,98,6.0,14.0,70,0.00,,,0.00,Wunderground v.1.15,2013-05-15 22:20:00,
2013-05-15 12:40:00,80.1,69.4,30.07,East,100,7.0,10.0,70,0.00,,,0.00,Wunderground v.1.15,2013-05-15 22:40:00,
2013-05-15 12:45:00,80.3,69.2,30.07,NE,51,7.0,10.0,69,0.00,,,0.00,Wunderground v.1.15,2013-05-15 22:45:00,
2013-05-15 12:55:00,80.3,70.4,30.06,East,98,7.0,8.0,72,0.00,,,0.00,Wunderground v.1.15,2013-05-15 22:55:00,
2013-05-15 13:05:00,79.8,69.6,30.06,ENE,58,8.0,11.0,71,0.00,,,0.00,Wunderground v.1.15,2013-05-15 23:05:00,
2013-05-15 13:15:00,80.1,70.7,30.06,ENE,57,6.0,7.0,73,0.00,,,0.00,Wunderground v.1.15,2013-05-15 23:15:00,
2013-05-15 13:25:00,79.2,69.8,30.06,East,88,8.0,10.0,73,0.00,,,0.00,Wunderground v.1.15,2013-05-15 23:25:00,
2013-05-15 13:30:00,78.9,69.5,30.06,ENE,74,8.0,8.0,73,0.00,,,0.00,Wunderground v.1.15,2013-05-15 23:30:00,
2013-05-15 13:40:00,79.1,69.7,30.06,ENE,59,7.0,7.0,73,0.00,,,0.00,Wunderground v.1.15,2013-05-15 23:40:00,
2013-05-15 13:50:00,79.7,69.9,30.06,NE,35,7.0,11.0,72,0.00,,,0.00,Wunderground v.1.15,2013-05-15 23:50:00,
2013-05-15 14:00:00,79.0,68.4,30.05,East,90,6.0,6.0,70,0.00,,,0.00,Wunderground v.1.15,2013-05-16 00:00:00,
2013-05-15 14:05:00,79.5,69.3,30.05,East,96,7.0,11.0,71,0.00,,,0.00,Wunderground v.1.15,2013-05-16 00:05:00,
2013-05-15 14:20:00,80.5,68.5,30.04,East,100,8.0,8.0,67,0.00,,,0.00,Wunderground v.1.15,2013-05-16 00:20:00,
2013-05-15 14:30:00,80.5,68.5,30.04,ENE,72,7.0,7.0,67,0.00,,,0.00,Wunderground v.1.15,2013-05-16 00:30:00,
2013-05-15 14:45:00,80.4,69.7,30.05,ESE,110,6.0,8.0,70,0.00,,,0.00,Wunderground v.1.15,2013-05-16 00:45:00,
2013-05-15 14:55:00,80.6,69.5,30.05,ESE,103,6.0,7.0,69,0.00,,,0.00,Wunderground v.1.15,2013-05-16 00:55:00,
2013-05-15 15:05:00,80.3,70.4,30.05,East,90,6.0,7.0,72,0.00,,,0.00,Wunderground v.1.15,2013-05-16 01:05:00,
2013-05-15 15:15:00,79.5,70.1,30.04,East,90,5.0,5.0,73,0.00,,,0.00,Wunderground v.1.15,2013-05-16 01:15:00,
2013-05-15 15:30:00,78.6,70.4,30.04,ENE,60,5.0,5.0,76,0.00,,,0.00,Wunderground v.1.15,2013-05-16 01:30:00,
2013-05-15 15:40:00,78.1,69.5,30.05,East,84,4.0,5.0,75,0.00,,,0.00,Wunderground v.1.15,2013-05-16 01:40:00,
2013-05-15 15:45:00,78.3,69.7,30.05,East,98,4.0,5.0,75,0.00,,,0.00,Wunderground v.1.15,2013-05-16 01:45:00,
2013-05-15 15:50:00,78.7,69.3,30.04,ESE,103,4.0,5.0,73,0.00,,,0.00,Wunderground v.1.15,2013-05-16 01:50:00,
2013-05-15 15:55:00,78.8,69.4,30.05,East,90,5.0,5.0,73,0.00,,,0.00,Wunderground v.1.15,2013-05-16 01:55:00,
2013-05-15 16:05:00,78.7,69.7,30.04,NE,55,6.0,6.0,74,0.00,,,0.00,Wunderground v.1.15,2013-05-16 02:05:00,
2013-05-15 16:25:00,79.0,70.8,30.04,ENE,59,5.0,6.0,76,0.00,,,0.00,Wunderground v.1.15,2013-05-16 02:25:00,
2013-05-15 16:35:00,78.7,70.1,30.04,NE,53,6.0,6.0,75,0.00,,,0.00,Wunderground v.1.15,2013-05-16 02:35:00,
2013-05-15 16:50:00,78.4,70.6,30.04,NE,38,5.0,9.0,77,0.00,,,0.00,Wunderground v.1.15,2013-05-16 02:50:00,
2013-05-15 17:00:00,78.1,70.3,30.05,ENE,61,8.0,10.0,77,0.00,,,0.00,Wunderground v.1.15,2013-05-16 03:00:00,
2013-05-15 17:05:00,78.3,70.9,30.05,East,99,7.0,10.0,78,0.00,,,0.00,Wunderground v.1.15,2013-05-16 03:05:00,
2013-05-15 17:20:00,77.8,69.6,30.05,East,90,5.0,5.0,76,0.00,,,0.00,Wunderground v.1.15,2013-05-16 03:20:00,
2013-05-15 17:30:00,78.1,69.1,30.04,East,86,6.0,7.0,74,0.00,,,0.00,Wunderground v.1.15,2013-05-16 03:30:00,
2013-05-15 17:40:00,78.0,68.6,30.05,East,82,6.0,6.0,73,0.00,,,0.00,Wunderground v.1.15,2013-05-16 03:40:00,
2013-05-15 17:45:00,78.2,68.8,30.05,East,100,6.0,7.0,73,0.00,,,0.00,Wunderground v.1.15,2013-05-16 03:45:00,
2013-05-15 17:55:00,77.8,69.6,30.05,ESE,103,6.0,7.0,76,0.00,,,0.00,Wunderground v.1.15,2013-05-16 03:55:00,
2013-05-15 18:05:00,77.5,69.3,30.05,East,88,6.0,7.0,76,0.00,,,0.00,Wunderground v.1.15,2013-05-16 04:05:00,
2013-05-15 18:10:00,77.5,68.9,30.06,ENE,72,5.0,10.0,75,0.00,,,0.00,Wunderground v.1.15,2013-05-16 04:10:00,
2013-05-15 18:15:00,77.3,69.1,30.06,ESE,102,6.0,10.0,76,0.00,,,0.00,Wunderground v.1.15,2013-05-16 04:15:00,
2013-05-15 18:20:00,77.2,69.4,30.05,NE,38,5.0,7.0,77,0.00,,,0.00,Wunderground v.1.15,2013-05-16 04:20:00,
2013-05-15 18:30:00,76.5,69.1,30.06,ENE,76,7.0,7.0,78,0.00,,,0.00,Wunderground v.1.15,2013-05-16 04:30:00,
2013-05-15 18:40:00,76.0,69.0,30.07,ENE,74,5.0,5.0,79,0.00,,,0.00,Wunderground v.1.15,2013-05-16 04:40:00,
2013-05-15 18:50:00,75.7,68.7,30.07,East,84,5.0,5.0,79,0.00,,,0.00,Wunderground v.1.15,2013-05-16 04:50:00,
2013-05-15 19:00:00,75.7,68.4,30.07,East,82,6.0,6.0,78,0.00,,,0.00,Wunderground v.1.15,2013-05-16 05:00:00,
2013-05-15 19:05:00,75.7,68.4,30.07,NE,54,5.0,9.0,78,0.00,,,0.00,Wunderground v.1.15,2013-05-16 05:05:00,
2013-05-15 19:15:00,75.7,68.7,30.07,East,95,6.0,10.0,79,0.00,,,0.00,Wunderground v.1.15,2013-05-16 05:15:00,
2013-05-15 19:25:00,75.3,68.7,30.08,ENE,69,7.0,11.0,80,0.00,,,0.00,Wunderground v.1.15,2013-05-16 05:25:00,
2013-05-15 19:35:00,74.9,68.3,30.08,ENE,69,7.0,12.0,80,0.00,,,0.00,Wunderground v.1.15,2013-05-16 05:35:00,
2013-05-15 19:40:00,74.9,68.7,30.08,East,92,8.0,8.0,81,0.00,,,0.00,Wunderground v.1.15,2013-05-16 05:40:00,
2013-05-15 19:50:00,74.6,68.7,30.08,East,90,4.0,4.0,82,0.00,,,0.00,Wunderground v.1.15,2013-05-16 05:50:00,
2013-05-15 20:00:00,74.6,68.4,30.09,ENE,65,6.0,6.0,81,0.00,,,0.00,Wunderground v.1.15,2013-05-16 06:00:00,
2013-05-15 20:05:00,74.6,68.4,30.09,East,92,6.0,6.0,81,0.00,,,0.00,Wunderground v.1.15,2013-05-16 06:05:00,
2013-05-15 20:15:00,74.5,68.3,30.09,East,88,5.0,6.0,81,0.00,,,0.00,Wunderground v.1.15,2013-05-16 06:15:00,
2013-05-15 20:25:00,74.4,68.2,30.09,ESE,113,4.0,5.0,81,0.00,,,0.00,Wunderground v.1.15,2013-05-16 06:25:00,
2013-05-15 20:35:00,74.4,67.8,30.09,ENE,57,5.0,7.0,80,0.00,,,0.00,Wunderground v.1.15,2013-05-16 06:35:00,
2013-05-15 20:45:00,74.4,67.5,30.09,East,88,6.0,9.0,79,0.00,,,0.00,Wunderground v.1.15,2013-05-16 06:45:00,
2013-05-15 20:55:00,74.5,67.9,30.09,ESE,107,7.0,7.0,80,0.00,,,0.00,Wunderground v.1.15,2013-05-16 06:55:00,
2013-05-15 21:05:00,74.4,68.2,30.09,East,90,5.0,6.0,81,0.00,,,0.00,Wunderground v.1.15,2013-05-16 07:05:00,
2013-05-15 21:15:00,74.4,68.2,30.10,ESE,109,5.0,5.0,81,0.00,,,0.00,Wunderground v.1.15,2013-05-16 07:15:00,
2013-05-15 21:25:00,74.4,68.2,30.10,East,101,5.0,8.0,81,0.00,,,0.00,Wunderground v.1.15,2013-05-16 07:25:00,
2013-05-15 21:35:00,74.4,68.2,30.11,East,88,6.0,6.0,81,0.00,,,0.00,Wunderground v.1.15,2013-05-16 07:35:00,
2013-05-15 21:45:00,74.5,68.3,30.11,ESE,103,4.0,6.0,81,0.00,,,0.00,Wunderground v.1.15,2013-05-16 07:45:00,
2013-05-15 21:55:00,74.8,68.6,30.11,ENE,59,5.0,6.0,81,0.00,,,0.00,Wunderground v.1.15,2013-05-16 07:55:00,
2013-05-15 22:05:00,74.9,68.3,30.11,East,84,6.0,6.0,80,0.00,,,0.00,Wunderground v.1.15,2013-05-16 08:05:00,
2013-05-15 22:15:00,74.8,68.2,30.12,East,92,5.0,6.0,80,0.00,,,0.00,Wunderground v.1.15,2013-05-16 08:15:00,
2013-05-15 22:25:00,74.7,68.1,30.12,ESE,112,5.0,5.0,80,0.00,,,0.00,Wunderground v.1.15,2013-05-16 08:25:00,
2013-05-15 22:35:00,74.7,67.8,30.12,ENE,59,4.0,5.0,79,0.00,,,0.00,Wunderground v.1.15,2013-05-16 08:35:00,
2013-05-15 22:45:00,74.8,68.2,30.12,ENE,75,5.0,5.0,80,0.00,,,0.00,Wunderground v.1.15,2013-05-16 08:45:00,
2013-05-15 22:55:00,74.7,68.1,30.12,ESE,110,4.0,6.0,80,0.00,,,0.00,Wunderground v.1.15,2013-05-16 08:55:00,
2013-05-15 23:05:00,74.7,68.1,30.12,ESE,109,5.0,5.0,80,0.00,,,0.00,Wunderground v.1.15,2013-05-16 09:05:00,
2013-05-15 23:15:00,74.6,68.0,30.11,East,101,5.0,11.0,80,0.00,,,0.00,Wunderground v.1.15,2013-05-16 09:15:00,
2013-05-15 23:25:00,74.7,68.5,30.11,ESE,103,4.0,5.0,81,0.00,,,0.00,Wunderground v.1.15,2013-05-16 09:25:00,
2013-05-15 23:35:00,74.6,68.4,30.11,East,100,5.0,7.0,81,0.00,,,0.00,Wunderground v.1.15,2013-05-16 09:35:00,
2013-05-15 23:45:00,74.6,68.7,30.10,NE,46,5.0,6.0,82,0.00,,,0.00,Wunderground v.1.15,2013-05-16 09:45:00,
2013-05-15 23:55:00,74.6,67.7,30.10,ENE,59,5.0,7.0,79,0.00,,,0.00,Wunderground v.1.15,2013-05-16 09:55:00,